Terminal Aerodrome Forecast
Issued by NWS

Home | Current Version | Previous Version | Text Only | Print | Product List | Glossary On
Versions: 1 2 3 4 5 6 7 8 9 10 11 12 13 14 15 16 17 18 19 20 21 22 23 24 25 26 27 28
927
FTUS41 KRLX 231729
TAFCKB
TAF
KCKB 231729Z 2318/2418 23010KT P6SM BKN025
     FM232000 24009KT P6SM VCTS BKN040CB
      TEMPO 2321/2324 4SM +TSRA OVC025CB
     FM240000 23007KT 6SM -SHRA VCTS BKN020CB
      TEMPO 2400/2403 2SM +TSRA BKN010CB
     FM240300 23005KT 5SM +SHRA VCTS BKN010CB
     FM240500 23004KT 5SM BR BKN010
     FM241500 25006KT P6SM BKN035=

USA.gov is the U.S. government's official web portal to all federal, state and local government web resources and services.